createdAt,value
2023-04-10T00:00:37.328Z,96.10
2023-04-10T00:02:45.921Z,95.90
2023-04-10T00:04:54.638Z,96.20
2023-04-10T00:07:02.443Z,96.20
2023-04-10T00:09:09.375Z,96.50
2023-04-10T00:11:16.451Z,96.40
2023-04-10T00:13:23.477Z,97.00
2023-04-10T00:15:31.583Z,96.50
2023-04-10T00:17:38.474Z,96.60
2023-04-10T00:19:45.649Z,96.60
2023-04-10T00:21:54.510Z,96.00
2023-04-10T00:24:01.997Z,95.30
2023-04-10T00:26:09.332Z,95.20
2023-04-10T00:28:18.264Z,94.90
2023-04-10T00:30:25.600Z,94.80
2023-04-10T00:32:33.052Z,94.60
2023-04-10T00:34:40.261Z,94.60
2023-04-10T00:36:48.159Z,94.50
2023-04-10T00:38:56.934Z,93.70
2023-04-10T00:41:04.488Z,92.90
2023-04-10T00:43:11.906Z,92.80
2023-04-10T00:45:18.884Z,92.40
2023-04-10T00:47:26.043Z,92.60
2023-04-10T00:49:33.093Z,92.70
2023-04-10T00:51:40.897Z,92.20
2023-04-10T00:53:48.129Z,91.80
2023-04-10T00:55:58.018Z,91.60
2023-04-10T00:58:05.146Z,91.50
2023-04-10T01:00:13.459Z,91.10
2023-04-10T01:02:21.369Z,90.60
2023-04-10T01:04:32.244Z,89.80
2023-04-10T01:06:55.684Z,89.20
2023-04-10T01:09:08.857Z,88.50
2023-04-10T01:11:27.365Z,87.80
2023-04-10T01:13:44.678Z,87.00
2023-04-10T01:15:57.892Z,86.40
2023-04-10T01:18:10.399Z,86.10
2023-04-10T01:20:22.359Z,86.00
2023-04-10T01:22:33.782Z,85.60
2023-04-10T01:24:59.083Z,85.30
2023-04-10T01:27:28.689Z,85.00
2023-04-10T01:29:39.671Z,84.70
2023-04-10T01:32:04.833Z,84.40
2023-04-10T01:34:14.813Z,84.00
2023-04-10T01:36:27.418Z,83.50
2023-04-10T01:38:35.130Z,83.10
2023-04-10T01:40:49.718Z,82.50
2023-04-10T01:43:05.045Z,82.30
2023-04-10T01:45:26.559Z,82.10
2023-04-10T01:47:35.259Z,81.70
2023-04-10T01:49:45.584Z,81.10
2023-04-10T01:51:55.381Z,80.70
2023-04-10T01:54:04.624Z,80.30
2023-04-10T01:56:14.148Z,80.00
2023-04-10T01:58:24.863Z,79.90
2023-04-10T02:00:42.704Z,79.70
2023-04-10T02:02:50.642Z,79.50
2023-04-10T02:04:58.566Z,79.50
2023-04-10T02:07:09.066Z,79.20
2023-04-10T02:09:20.787Z,79.10
2023-04-10T02:11:37.188Z,78.80
2023-04-10T02:13:45.487Z,78.70
2023-04-10T02:15:57.996Z,78.10
2023-04-10T02:18:07.533Z,77.80
2023-04-10T02:20:15.858Z,77.50
2023-04-10T02:22:23.891Z,77.10
2023-04-10T02:24:31.994Z,77.30
2023-04-10T02:26:49.262Z,77.40
2023-04-10T02:28:56.254Z,77.20
2023-04-10T02:31:05.174Z,76.80
2023-04-10T02:33:12.914Z,76.20
2023-04-10T02:35:20.249Z,75.60
2023-04-10T02:37:27.476Z,75.20
2023-04-10T02:39:34.918Z,75.10
2023-04-10T02:41:42.614Z,74.40
2023-04-10T02:43:53.568Z,74.00
2023-04-10T02:46:07.935Z,74.10
2023-04-10T02:48:18.698Z,74.00
2023-04-10T02:50:33.300Z,73.80
2023-04-10T02:52:40.841Z,73.50
2023-04-10T02:54:48.538Z,73.30
2023-04-10T02:56:55.713Z,72.90
2023-04-10T02:59:02.686Z,72.50
2023-04-10T03:01:12.486Z,72.20
2023-04-10T03:03:23.366Z,71.90
2023-04-10T03:05:34.371Z,71.80
2023-04-10T03:07:41.556Z,71.40
2023-04-10T03:09:50.476Z,70.60
2023-04-10T03:11:57.505Z,70.30
2023-04-10T03:14:04.829Z,70.20
2023-04-10T03:16:13.722Z,69.60
2023-04-10T03:18:21.612Z,69.30
2023-04-10T03:20:31.910Z,69.20
2023-04-10T03:22:39.303Z,69.00
2023-04-10T03:24:48.377Z,68.60
2023-04-10T03:26:55.813Z,67.70
2023-04-10T03:29:03.223Z,67.40
2023-04-10T03:31:13.470Z,67.50
2023-04-10T03:33:22.960Z,67.40
2023-04-10T03:35:34.200Z,66.80
2023-04-10T03:37:43.355Z,66.20
2023-04-10T03:39:50.731Z,65.40
2023-04-10T03:41:57.606Z,64.90
2023-04-10T03:44:05.249Z,64.40
2023-04-10T03:46:14.279Z,64.70
2023-04-10T03:48:24.524Z,64.00
2023-04-10T03:50:32.217Z,63.40
2023-04-10T03:52:40.733Z,63.00
2023-04-10T03:54:52.984Z,62.80
2023-04-10T03:57:05.950Z,63.20
2023-04-10T03:59:13.185Z,62.70
2023-04-10T04:01:23.186Z,62.10
2023-04-10T04:03:41.667Z,61.50
2023-04-10T04:06:08.883Z,60.80
2023-04-10T04:08:23.644Z,60.70
2023-04-10T04:10:40.043Z,61.10
2023-04-10T04:13:05.799Z,60.90
2023-04-10T04:15:39.147Z,60.60
2023-04-10T04:18:19.195Z,61.10
2023-04-10T04:20:31.197Z,60.60
2023-04-10T04:23:04.149Z,60.40
2023-04-10T04:25:31.015Z,60.10
2023-04-10T04:27:59.757Z,59.90
2023-04-10T04:30:25.009Z,59.70
2023-04-10T04:32:53.850Z,59.00
2023-04-10T04:35:23.665Z,58.30
2023-04-10T04:37:50.844Z,57.40
2023-04-10T04:40:16.531Z,58.60
2023-04-10T04:42:55.875Z,58.90
2023-04-10T04:45:16.168Z,58.40
2023-04-10T04:47:41.869Z,57.90
2023-04-10T04:49:59.960Z,57.80
2023-04-10T04:52:38.018Z,57.60
2023-04-10T04:55:05.381Z,57.50
2023-04-10T04:57:32.725Z,57.40
2023-04-10T04:59:58.805Z,56.90
2023-04-10T05:02:25.023Z,56.30
2023-04-10T05:04:46.697Z,55.90
2023-04-10T05:07:08.522Z,55.80
2023-04-10T05:09:37.258Z,54.80
2023-04-10T05:12:16.595Z,55.90
2023-04-10T05:14:24.651Z,56.20
2023-04-10T05:16:49.439Z,56.30
2023-04-10T05:19:14.905Z,55.80
2023-04-10T05:21:36.415Z,55.10
2023-04-10T05:24:00.438Z,54.30
2023-04-10T05:26:32.201Z,54.10
2023-04-10T05:29:05.345Z,53.90
2023-04-10T05:31:33.068Z,53.40
2023-04-10T05:34:12.385Z,52.80
2023-04-10T05:36:32.800Z,53.00
2023-04-10T05:38:47.695Z,53.00
2023-04-10T05:41:15.201Z,51.60
2023-04-10T05:43:43.898Z,52.80
2023-04-10T05:46:05.847Z,52.50
2023-04-10T05:48:30.975Z,52.20
2023-04-10T05:51:03.955Z,51.50
2023-04-10T05:53:34.024Z,51.60
2023-04-10T05:56:00.435Z,51.10
2023-04-10T05:58:27.824Z,51.30
2023-04-10T06:01:02.690Z,51.30
2023-04-10T06:03:28.324Z,51.60
2023-04-10T06:05:38.865Z,52.20
2023-04-10T06:07:47.533Z,52.20
2023-04-10T06:09:55.280Z,52.20
2023-04-10T06:12:02.880Z,52.60
2023-04-10T06:14:10.563Z,52.10
2023-04-10T06:16:25.087Z,51.60
2023-04-10T06:18:32.372Z,51.40
2023-04-10T06:20:39.792Z,51.70
2023-04-10T06:22:46.916Z,52.00
2023-04-10T06:24:54.260Z,51.70
2023-04-10T06:27:01.176Z,51.30
2023-04-10T06:29:08.307Z,51.00
2023-04-10T06:31:15.657Z,50.10
2023-04-10T06:33:26.391Z,51.00
2023-04-10T06:35:34.136Z,51.40
2023-04-10T06:37:42.211Z,50.80
2023-04-10T06:39:49.443Z,50.20
2023-04-10T06:41:57.288Z,49.80
2023-04-10T06:44:13.762Z,49.40
2023-04-10T06:46:21.215Z,49.00
2023-04-10T06:48:29.944Z,48.90
2023-04-10T06:50:37.073Z,49.00
2023-04-10T06:52:43.898Z,49.40
2023-04-10T06:54:50.929Z,49.50
2023-04-10T06:56:59.744Z,49.30
2023-04-10T06:59:07.439Z,49.20
2023-04-10T07:01:14.600Z,49.20
2023-04-10T07:03:21.868Z,49.40
2023-04-10T07:05:30.470Z,49.60
2023-04-10T07:07:37.500Z,49.00
2023-04-10T07:09:44.831Z,50.30
2023-04-10T07:11:52.525Z,50.60
2023-04-10T07:13:59.814Z,50.90
2023-04-10T07:16:06.952Z,50.60
2023-04-10T07:18:14.275Z,50.20
2023-04-10T07:20:21.814Z,49.80
2023-04-10T07:22:30.791Z,49.40
2023-04-10T07:24:38.582Z,48.90
2023-04-10T07:26:45.411Z,48.70
2023-04-10T07:28:52.697Z,48.50
2023-04-10T07:31:00.239Z,48.10
2023-04-10T07:33:08.018Z,48.10
2023-04-10T07:35:15.271Z,47.70
2023-04-10T07:37:23.060Z,47.30
2023-04-10T07:39:31.928Z,47.20
2023-04-10T07:41:39.520Z,47.30
2023-04-10T07:43:47.109Z,47.20
2023-04-10T07:45:54.719Z,47.10
2023-04-10T07:48:01.698Z,47.00
2023-04-10T07:50:10.703Z,47.00
2023-04-10T07:52:17.837Z,47.00
2023-04-10T07:54:24.862Z,47.20
2023-04-10T07:56:33.838Z,47.00
2023-04-10T07:58:41.329Z,47.00
2023-04-10T08:00:48.575Z,46.90
2023-04-10T08:02:56.273Z,46.50
2023-04-10T08:05:03.839Z,46.30
2023-04-10T08:07:11.282Z,46.40
2023-04-10T08:09:18.717Z,46.30
2023-04-10T08:11:33.457Z,46.20
2023-04-10T08:13:41.987Z,46.40
2023-04-10T08:15:49.327Z,46.70
2023-04-10T08:17:56.679Z,47.30
2023-04-10T08:20:03.888Z,47.50
2023-04-10T08:22:10.817Z,47.90
2023-04-10T08:24:20.760Z,48.10
2023-04-10T08:26:28.713Z,48.30
2023-04-10T08:28:38.108Z,48.60
2023-04-10T08:30:45.213Z,48.40
2023-04-10T08:32:52.802Z,48.40
2023-04-10T08:35:00.049Z,48.30
2023-04-10T08:37:11.808Z,47.90
2023-04-10T08:39:19.328Z,47.80
2023-04-10T08:41:26.294Z,47.80
2023-04-10T08:43:33.794Z,47.70
2023-04-10T08:45:44.713Z,47.20
2023-04-10T08:47:54.213Z,47.10
2023-04-10T08:50:04.407Z,47.40
2023-04-10T08:52:16.584Z,47.20
2023-04-10T08:54:28.904Z,47.00
2023-04-10T08:56:38.028Z,47.00
2023-04-10T08:58:45.670Z,47.20
2023-04-10T09:00:55.827Z,47.70
2023-04-10T09:03:05.909Z,47.50
2023-04-10T09:05:15.898Z,47.70
2023-04-10T09:07:24.078Z,47.60
2023-04-10T09:09:33.456Z,47.70
2023-04-10T09:12:05.003Z,48.00
2023-04-10T09:14:24.694Z,47.60
2023-04-10T09:16:36.454Z,47.60
2023-04-10T09:18:48.227Z,47.70
2023-04-10T09:20:55.544Z,47.60
2023-04-10T09:23:03.391Z,47.50
2023-04-10T09:25:31.028Z,47.70
2023-04-10T09:27:41.107Z,47.70
2023-04-10T09:29:50.095Z,48.00
2023-04-10T09:31:59.213Z,48.80
2023-04-10T09:34:17.238Z,48.90
2023-04-10T09:36:24.697Z,48.80
2023-04-10T09:38:32.022Z,49.20
2023-04-10T09:40:39.104Z,49.20
2023-04-10T09:42:46.323Z,49.20
2023-04-10T09:44:59.702Z,49.30
2023-04-10T09:47:22.463Z,49.70
2023-04-10T09:49:29.791Z,49.40
2023-04-10T09:51:37.539Z,49.80
2023-04-10T09:53:53.344Z,49.50
2023-04-10T09:56:00.977Z,48.90
2023-04-10T09:58:09.044Z,49.20
2023-04-10T10:00:16.978Z,49.20
2023-04-10T10:02:27.393Z,49.20
2023-04-10T10:04:37.059Z,49.20
2023-04-10T10:06:44.532Z,49.40
2023-04-10T10:08:52.824Z,49.70
2023-04-10T10:11:03.613Z,49.70
2023-04-10T10:13:14.021Z,50.00
2023-04-10T10:15:28.528Z,50.10
2023-04-10T10:17:42.609Z,50.40
2023-04-10T10:19:56.918Z,50.60
2023-04-10T10:22:05.072Z,51.10
2023-04-10T10:24:13.620Z,51.90
2023-04-10T10:26:22.312Z,53.70
2023-04-10T10:28:34.608Z,55.10
2023-04-10T10:30:42.256Z,56.20
2023-04-10T10:32:53.037Z,56.30
2023-04-10T10:35:00.301Z,55.70
2023-04-10T10:37:09.113Z,55.90
2023-04-10T10:39:30.637Z,57.10
2023-04-10T10:41:45.038Z,58.40
2023-04-10T10:43:58.061Z,58.00
2023-04-10T10:46:10.501Z,58.10
2023-04-10T10:48:19.488Z,58.50
2023-04-10T10:50:27.029Z,59.10
2023-04-10T10:52:45.226Z,60.00
2023-04-10T10:54:59.116Z,61.20
2023-04-10T10:57:10.228Z,60.70
2023-04-10T10:59:17.718Z,60.90
2023-04-10T11:01:25.161Z,61.40
2023-04-10T11:03:34.668Z,62.10
2023-04-10T11:05:55.292Z,62.70
2023-04-10T11:08:14.963Z,62.70
2023-04-10T11:10:42.574Z,63.70
2023-04-10T11:13:19.915Z,63.30
2023-04-10T11:15:28.483Z,64.10
2023-04-10T11:17:55.271Z,63.30
2023-04-10T11:20:05.163Z,64.70
2023-04-10T11:22:16.336Z,64.70
2023-04-10T11:24:23.317Z,64.70
2023-04-10T11:26:41.166Z,66.60
2023-04-10T11:28:48.283Z,66.40
2023-04-10T11:30:55.151Z,65.80
2023-04-10T11:33:03.182Z,66.10
2023-04-10T11:35:14.373Z,66.50
2023-04-10T11:37:26.977Z,67.30
2023-04-10T11:39:35.186Z,66.80
2023-04-10T11:41:43.271Z,66.90
2023-04-10T11:43:55.603Z,67.20
2023-04-10T11:46:10.321Z,67.30
2023-04-10T11:48:19.846Z,67.10
2023-04-10T11:50:37.155Z,66.60
2023-04-10T11:52:44.546Z,67.00
2023-04-10T11:54:53.003Z,67.60
2023-04-10T11:57:02.571Z,68.00
2023-04-10T11:59:11.717Z,68.50
2023-04-10T12:01:18.835Z,69.10
2023-04-10T12:03:39.023Z,68.80
2023-04-10T12:05:52.241Z,69.60
2023-04-10T12:08:00.155Z,69.60
2023-04-10T12:10:08.152Z,69.50
2023-04-10T12:12:16.366Z,69.30
2023-04-10T12:14:24.466Z,69.50
2023-04-10T12:16:31.839Z,69.90
2023-04-10T12:18:39.045Z,69.70
2023-04-10T12:20:47.134Z,70.00
2023-04-10T12:22:57.606Z,69.50
2023-04-10T12:25:05.338Z,69.30
2023-04-10T12:27:18.460Z,69.40
2023-04-10T12:29:30.456Z,69.70
2023-04-10T12:31:38.688Z,70.40
2023-04-10T12:33:49.330Z,70.30
2023-04-10T12:35:57.095Z,69.80
2023-04-10T12:38:05.848Z,69.40
2023-04-10T12:40:14.207Z,69.00
2023-04-10T12:42:23.388Z,68.70
2023-04-10T12:44:30.255Z,68.40
2023-04-10T12:46:37.695Z,68.70
2023-04-10T12:48:44.878Z,69.60
2023-04-10T12:50:52.621Z,70.30
2023-04-10T12:53:10.098Z,70.30
2023-04-10T12:55:18.313Z,70.30
2023-04-10T12:57:31.013Z,70.50
2023-04-10T12:59:38.449Z,71.00
2023-04-10T13:01:45.401Z,70.70
2023-04-10T13:03:52.912Z,70.50
2023-04-10T13:06:00.357Z,70.00
2023-04-10T13:08:09.528Z,70.70
2023-04-10T13:10:16.361Z,71.70
2023-04-10T13:12:24.052Z,71.50
2023-04-10T13:14:30.916Z,71.20
2023-04-10T13:16:38.147Z,71.70
2023-04-10T13:18:45.229Z,71.80
2023-04-10T13:20:52.467Z,71.60
2023-04-10T13:22:59.647Z,72.10
2023-04-10T13:25:09.181Z,72.20
2023-04-10T13:27:16.772Z,72.10
2023-04-10T13:29:24.308Z,71.80
2023-04-10T13:31:31.543Z,72.00
2023-04-10T13:33:39.235Z,72.30
2023-04-10T13:35:46.414Z,72.40
2023-04-10T13:37:55.348Z,72.70
2023-04-10T13:40:02.217Z,72.60
2023-04-10T13:42:11.094Z,73.00
2023-04-10T13:44:17.968Z,73.40
2023-04-10T13:46:25.126Z,73.60
2023-04-10T13:48:54.450Z,73.50
2023-04-10T13:50:59.323Z,73.70
2023-04-10T13:53:08.399Z,74.10
2023-04-10T13:55:15.947Z,74.20
2023-04-10T13:57:24.796Z,74.20
2023-04-10T13:59:32.767Z,74.50
2023-04-10T14:01:39.618Z,74.60
2023-04-10T14:03:46.810Z,74.70
2023-04-10T14:05:53.795Z,74.60
2023-04-10T14:08:01.180Z,74.30
2023-04-10T14:10:08.940Z,74.80
2023-04-10T14:12:17.231Z,74.90
2023-04-10T14:14:26.617Z,74.80
2023-04-10T14:16:34.034Z,74.90
2023-04-10T14:18:41.261Z,76.50
2023-04-10T14:20:48.470Z,76.50
2023-04-10T14:22:55.491Z,77.30
2023-04-10T14:25:12.264Z,78.00
2023-04-10T14:27:20.201Z,78.50
2023-04-10T14:29:37.302Z,78.80
2023-04-10T14:31:56.845Z,79.00
2023-04-10T14:34:05.510Z,79.20
2023-04-10T14:36:13.151Z,79.20
2023-04-10T14:38:20.888Z,79.20
2023-04-10T14:40:28.732Z,78.50
2023-04-10T14:42:35.811Z,78.10
2023-04-10T14:44:44.366Z,78.60
2023-04-10T14:46:51.405Z,78.40
2023-04-10T14:48:58.365Z,78.10
2023-04-10T14:51:06.692Z,78.40
2023-04-10T14:53:13.921Z,77.90
2023-04-10T14:55:21.311Z,77.80
2023-04-10T14:57:29.158Z,77.80
2023-04-10T14:59:36.696Z,78.00
2023-04-10T15:01:45.362Z,78.10
2023-04-10T15:03:53.000Z,78.50
2023-04-10T15:06:03.521Z,78.90
2023-04-10T15:08:10.954Z,79.40
2023-04-10T15:10:17.931Z,79.50
2023-04-10T15:12:25.828Z,79.60
2023-04-10T15:14:32.721Z,79.70
2023-04-10T15:16:39.776Z,79.40
2023-04-10T15:18:51.061Z,79.50
2023-04-10T15:20:58.600Z,79.80
2023-04-10T15:23:05.535Z,79.50
2023-04-10T15:25:13.475Z,79.40
2023-04-10T15:27:21.689Z,79.10
2023-04-10T15:29:28.964Z,79.00
2023-04-10T15:31:36.104Z,79.00
2023-04-10T15:33:43.530Z,79.40
2023-04-10T15:35:53.799Z,79.70
2023-04-10T15:38:01.735Z,79.90
2023-04-10T15:40:09.540Z,80.10
2023-04-10T15:42:17.788Z,80.00
2023-04-10T15:44:24.613Z,79.90
2023-04-10T15:46:33.716Z,79.80
2023-04-10T15:48:40.834Z,79.70
2023-04-10T15:50:48.152Z,79.90
2023-04-10T15:52:56.818Z,80.00
2023-04-10T15:55:03.952Z,79.80
2023-04-10T15:57:10.828Z,79.50
2023-04-10T15:59:17.953Z,79.10
2023-04-10T16:01:24.979Z,79.00
2023-04-10T16:03:32.205Z,79.30
2023-04-10T16:05:39.092Z,79.40
2023-04-10T16:07:46.226Z,79.10
2023-04-10T16:09:56.218Z,79.20
2023-04-10T16:12:03.450Z,79.50
2023-04-10T16:14:10.797Z,79.60
2023-04-10T16:16:18.855Z,79.70
2023-04-10T16:18:25.662Z,79.60
2023-04-10T16:20:32.998Z,79.70
2023-04-10T16:22:40.033Z,80.00
2023-04-10T16:24:47.569Z,80.10
2023-04-10T16:26:57.605Z,80.30
2023-04-10T16:29:04.948Z,80.40
2023-04-10T16:31:12.169Z,80.60
2023-04-10T16:33:20.091Z,80.40
2023-04-10T16:35:26.941Z,80.60
2023-04-10T16:37:34.040Z,80.20
2023-04-10T16:39:40.909Z,80.50
2023-04-10T16:41:48.298Z,81.00
2023-04-10T16:43:57.268Z,81.10
2023-04-10T16:46:04.410Z,80.80
2023-04-10T16:48:11.605Z,80.80
2023-04-10T16:52:40.431Z,80.10
2023-04-10T16:54:47.712Z,79.80
2023-04-10T16:56:54.538Z,79.50
2023-04-10T16:59:03.394Z,79.90
2023-04-10T17:01:20.625Z,80.20
2023-04-10T17:03:28.020Z,79.80
2023-04-10T17:05:38.577Z,80.00
2023-04-10T17:07:45.965Z,79.70
2023-04-10T17:09:53.296Z,79.80
2023-04-10T17:12:00.809Z,79.70
2023-04-10T17:14:11.142Z,79.40
2023-04-10T17:16:18.688Z,79.50
2023-04-10T17:18:25.967Z,80.10
2023-04-10T17:20:33.609Z,80.50
2023-04-10T17:22:41.660Z,80.70
2023-04-10T17:24:48.896Z,80.70
2023-04-10T17:26:57.820Z,80.50
2023-04-10T17:29:05.409Z,79.50
2023-04-10T17:31:14.392Z,78.30
2023-04-10T17:33:22.844Z,78.10
2023-04-10T17:35:29.978Z,77.90
2023-04-10T17:37:37.180Z,77.60
2023-04-10T17:39:44.080Z,77.50
2023-04-10T17:41:51.311Z,78.60
2023-04-10T17:43:58.446Z,79.10
2023-04-10T17:46:06.101Z,79.50
2023-04-10T17:48:14.871Z,79.60
2023-04-10T17:50:22.395Z,79.40
2023-04-10T17:52:29.576Z,78.60
2023-04-10T17:54:38.294Z,77.90
2023-04-10T17:56:45.319Z,77.30
2023-04-10T17:58:52.673Z,77.40
2023-04-10T18:00:59.641Z,77.30
2023-04-10T18:03:06.956Z,77.10
2023-04-10T18:05:15.998Z,76.90
2023-04-10T18:07:23.587Z,77.10
2023-04-10T18:09:30.719Z,77.20
2023-04-10T18:11:38.149Z,77.00
2023-04-10T18:13:44.974Z,77.00
2023-04-10T18:15:52.105Z,77.00
2023-04-10T18:17:59.398Z,78.10
2023-04-10T18:20:06.932Z,78.60
2023-04-10T18:22:15.498Z,79.00
2023-04-10T18:24:22.877Z,79.20
2023-04-10T18:26:32.772Z,79.40
2023-04-10T18:28:40.568Z,79.10
2023-04-10T18:30:47.810Z,79.30
2023-04-10T18:32:55.240Z,79.50
2023-04-10T18:35:04.628Z,79.60
2023-04-10T18:37:13.601Z,79.60
2023-04-10T18:39:20.781Z,79.70
2023-04-10T18:41:28.119Z,79.50
2023-04-10T18:43:34.990Z,79.60
2023-04-10T18:45:45.468Z,79.80
2023-04-10T18:47:52.315Z,80.10
2023-04-10T18:49:59.355Z,79.80
2023-04-10T18:52:06.649Z,79.00
2023-04-10T18:54:15.713Z,78.40
2023-04-10T18:56:23.076Z,78.00
2023-04-10T18:58:31.048Z,77.60
2023-04-10T19:00:37.887Z,77.70
2023-04-10T19:02:45.367Z,77.70
2023-04-10T19:04:55.219Z,77.20
2023-04-10T19:07:02.638Z,77.20
2023-04-10T19:09:10.250Z,77.10
2023-04-10T19:11:19.573Z,78.00
2023-04-10T19:13:26.755Z,78.50
2023-04-10T19:15:33.634Z,78.00
2023-04-10T19:17:40.754Z,77.80
2023-04-10T19:19:47.984Z,77.70
2023-04-10T19:21:55.523Z,77.60
2023-04-10T19:24:02.345Z,78.00
2023-04-10T19:26:10.808Z,78.50
2023-04-10T19:28:19.370Z,78.60
2023-04-10T19:30:27.119Z,78.60
2023-04-10T19:32:34.259Z,78.90
2023-04-10T19:34:41.527Z,79.60
2023-04-10T19:36:48.458Z,79.80
2023-04-10T19:38:58.289Z,80.00
2023-04-10T19:41:05.635Z,80.00
2023-04-10T19:43:13.442Z,80.20
2023-04-10T19:45:24.657Z,81.00
2023-04-10T19:47:32.146Z,81.10
2023-04-10T19:49:39.275Z,81.60
2023-04-10T19:51:46.463Z,81.60
2023-04-10T19:53:54.024Z,81.10
2023-04-10T19:56:01.970Z,81.00
2023-04-10T19:58:13.452Z,81.10
2023-04-10T20:00:30.031Z,81.60
2023-04-10T20:02:37.468Z,81.30
2023-04-10T20:04:47.229Z,81.90
2023-04-10T20:06:55.821Z,82.20
2023-04-10T20:09:03.259Z,81.80
2023-04-10T20:11:10.530Z,81.70
2023-04-10T20:13:18.141Z,81.80
2023-04-10T20:15:24.955Z,82.10
2023-04-10T20:17:33.952Z,82.70
2023-04-10T20:19:41.731Z,82.90
2023-04-10T20:21:49.063Z,82.80
2023-04-10T20:23:58.446Z,82.90
2023-04-10T20:26:05.318Z,83.20
2023-04-10T20:28:12.196Z,83.20
2023-04-10T20:30:19.224Z,83.30
2023-04-10T20:32:26.455Z,83.50
2023-04-10T20:34:35.647Z,83.40
2023-04-10T20:36:42.813Z,83.50
2023-04-10T20:38:50.101Z,83.90
2023-04-10T20:40:57.542Z,84.80
2023-04-10T20:43:04.666Z,85.70
2023-04-10T20:45:12.717Z,85.90
2023-04-10T20:47:20.051Z,86.00
2023-04-10T20:49:28.618Z,85.70
2023-04-10T20:51:38.422Z,85.90
2023-04-10T20:53:45.334Z,86.20
2023-04-10T20:55:55.750Z,86.30
2023-04-10T20:58:02.872Z,86.60
2023-04-10T21:00:11.595Z,86.90
2023-04-10T21:02:19.512Z,87.10
2023-04-10T21:04:26.875Z,87.30
2023-04-10T21:06:36.875Z,87.20
2023-04-10T21:08:44.004Z,87.30
2023-04-10T21:10:51.188Z,87.10
2023-04-10T21:12:58.677Z,87.00
2023-04-10T21:15:05.809Z,87.00
2023-04-10T21:17:13.297Z,87.40
2023-04-10T21:19:20.173Z,87.50
2023-04-10T21:21:27.557Z,87.40
2023-04-10T21:23:36.332Z,87.30
2023-04-10T21:25:43.665Z,87.30
2023-04-10T21:27:50.794Z,87.80
2023-04-10T21:29:58.646Z,87.90
2023-04-10T21:32:05.962Z,87.90
2023-04-10T21:34:13.368Z,88.10
2023-04-10T21:36:20.441Z,88.10
2023-04-10T21:38:27.525Z,88.30
2023-04-10T21:40:36.853Z,88.10
2023-04-10T21:42:44.150Z,88.10
2023-04-10T21:44:50.960Z,88.00
2023-04-10T21:46:58.242Z,88.00
2023-04-10T21:49:05.170Z,87.90
2023-04-10T21:51:12.709Z,88.00
2023-04-10T21:53:19.997Z,87.90
2023-04-10T21:55:27.224Z,88.00
2023-04-10T21:57:35.839Z,87.80
2023-04-10T21:59:43.173Z,87.30
2023-04-10T22:01:50.096Z,87.40
2023-04-10T22:03:58.197Z,87.20
2023-04-10T22:06:05.128Z,87.70
2023-04-10T22:08:12.374Z,87.70
2023-04-10T22:10:19.804Z,87.70
2023-04-10T22:12:27.237Z,87.80
2023-04-10T22:14:36.109Z,87.70
2023-04-10T22:16:43.231Z,87.80
2023-04-10T22:18:50.166Z,88.00
2023-04-10T22:20:57.402Z,87.80
2023-04-10T22:23:05.051Z,87.50
2023-04-10T22:25:12.650Z,87.30
2023-04-10T22:27:19.764Z,87.30
2023-04-10T22:29:27.200Z,87.20
2023-04-10T22:31:35.870Z,87.10
2023-04-10T22:33:43.099Z,87.10
2023-04-10T22:35:50.060Z,87.00
2023-04-10T22:37:57.925Z,87.20
2023-04-10T22:40:04.796Z,87.20
2023-04-10T22:42:12.823Z,87.30
2023-04-10T22:44:19.986Z,87.20
2023-04-10T22:46:27.147Z,87.30
2023-04-10T22:48:36.416Z,87.40
2023-04-10T22:50:43.834Z,87.40
2023-04-10T22:52:51.017Z,87.40
2023-04-10T22:54:58.608Z,87.20
2023-04-10T22:57:05.987Z,87.10
2023-04-10T22:59:13.476Z,87.00
2023-04-10T23:01:20.780Z,86.70
2023-04-10T23:03:28.543Z,86.20
2023-04-10T23:05:37.119Z,85.90
2023-04-10T23:07:44.202Z,85.60
2023-04-10T23:09:51.073Z,85.30
2023-04-10T23:11:58.204Z,85.30
2023-04-10T23:14:05.336Z,85.30
2023-04-10T23:16:13.983Z,85.60
2023-04-10T23:18:24.104Z,85.90
2023-04-10T23:20:31.542Z,86.20
2023-04-10T23:22:40.159Z,86.80
2023-04-10T23:24:47.544Z,86.80
2023-04-10T23:26:54.686Z,86.30
2023-04-10T23:29:02.275Z,86.30
2023-04-10T23:31:10.012Z,86.20
2023-04-10T23:33:17.345Z,86.10
2023-04-10T23:35:24.722Z,86.00
2023-04-10T23:37:33.090Z,86.00
2023-04-10T23:39:42.119Z,86.20
2023-04-10T23:41:49.348Z,85.70
2023-04-10T23:43:56.428Z,85.00
2023-04-10T23:46:03.918Z,84.40
2023-04-10T23:48:13.100Z,84.10
2023-04-10T23:50:20.603Z,83.70
2023-04-10T23:52:27.766Z,83.10
2023-04-10T23:54:34.949Z,82.40
2023-04-10T23:56:44.174Z,81.60
2023-04-10T23:58:51.407Z,81.00
